Time;durP1;ratioP1;P1;durP2;ratioP2;P2;SDS_P1;SDS_P2;PMS_P1;PMS_P2;Temp;Humidity;BMP_temperature;BMP_pressure;BME280_temperature;BME280_humidity;BME280_pressure;Samples;Min_cycle;Max_cycle;Signal;HPM_P1;HPM_P2
2022/12/29 15:53:11;;;;;;;1.60;0.83;;;9.70;1.00;;;;;;5082996;27;20532;-82
2022/12/29 15:55:40;;;;;;;3.50;1.37;;;9.70;1.00;;;;;;5082179;28;20204;-77
2022/12/29 15:58:24;;;;;;;3.60;1.10;;;9.60;1.00;;;;;;5079550;28;20209;-79
2022/12/29 16:00:56;;;;;;;2.93;1.10;;;9.60;1.00;;;;;;5081952;28;20240;-78
2022/12/29 16:03:24;;;;;;;2.37;0.90;;;9.60;1.00;;;;;;5078698;28;20254;-79
2022/12/29 16:05:57;;;;;;;1.90;0.87;;;9.50;1.00;;;;;;5078379;28;20658;-80
2022/12/29 16:08:36;;;;;;;2.83;1.07;;;9.50;1.00;;;;;;5079449;28;20655;-80
2022/12/29 16:11:07;;;;;;;3.63;0.87;;;9.40;1.00;;;;;;5082914;28;20204;-81
2022/12/29 16:13:38;;;;;;;3.93;0.83;;;9.30;1.00;;;;;;5081175;28;20185;-78
2022/12/29 16:16:13;;;;;;;2.80;1.03;;;9.40;1.00;;;;;;5080616;28;20211;-80
2022/12/29 16:18:39;;;;;;;2.73;0.83;;;9.40;1.00;;;;;;5079598;28;20594;-78
2022/12/29 16:21:14;;;;;;;1.97;0.70;;;9.30;1.00;;;;;;5080162;28;20185;-79
2022/12/29 16:23:40;;;;;;;2.70;0.97;;;9.20;1.00;;;;;;5081320;28;20176;-78
2022/12/29 16:26:16;;;;;;;3.07;1.00;;;9.20;1.00;;;;;;5080387;28;20451;-75
2022/12/29 16:28:42;;;;;;;1.77;0.87;;;9.10;1.00;;;;;;5082638;28;20764;-79
2022/12/29 16:31:17;;;;;;;2.23;0.83;;;9.00;1.00;;;;;;5080443;28;20225;-81
2022/12/29 16:33:48;;;;;;;3.20;1.03;;;8.90;1.00;;;;;;5081614;28;20367;-75
2022/12/29 16:36:23;;;;;;;2.70;1.07;;;8.90;1.00;;;;;;5080918;28;20188;-76
2022/12/29 16:38:48;;;;;;;2.57;1.10;;;8.90;7.80;;;;;;5079638;28;20219;-78
2022/12/29 16:41:29;;;;;;;1.73;0.80;;;8.90;1.00;;;;;;5080336;28;20193;-75
2022/12/29 16:44:16;;;;;;;2.93;0.80;;;8.90;1.00;;;;;;5080619;28;20193;-76
2022/12/29 16:47:01;;;;;;;3.47;0.83;;;8.80;3.40;;;;;;5077702;28;20185;-77
2022/12/29 16:49:28;;;;;;;5.23;1.23;;;8.80;7.50;;;;;;5079680;28;20217;-78
2022/12/29 16:51:55;;;;;;;2.97;1.10;;;8.70;13.40;;;;;;5079559;28;20235;-81
2022/12/29 16:54:24;;;;;;;3.10;1.10;;;8.60;24.10;;;;;;5076707;28;20185;-77
2022/12/29 16:56:52;;;;;;;3.17;1.10;;;8.50;33.00;;;;;;5078063;28;20177;-76
2022/12/29 16:59:38;;;;;;;3.80;1.07;;;8.50;38.70;;;;;;5077377;28;21383;-78
2022/12/29 17:02:13;;;;;;;1.97;0.87;;;8.60;39.50;;;;;;5077217;28;20189;-78
2022/12/29 17:04:39;;;;;;;3.10;1.37;;;8.60;44.10;;;;;;5064092;28;20392;-76
2022/12/29 17:07:16;;;;;;;1.83;1.10;;;8.60;43.40;;;;;;5064178;28;20659;-80
2022/12/29 17:09:42;;;;;;;3.20;1.20;;;8.70;24.10;;;;;;5064534;28;20521;-78
2022/12/29 17:12:12;;;;;;;2.77;1.00;;;8.80;36.20;;;;;;5063466;28;20213;-79
2022/12/29 17:14:45;;;;;;;2.83;1.20;;;8.70;23.20;;;;;;5064293;28;20661;-77
2022/12/29 17:17:15;;;;;;;2.50;1.00;;;8.70;23.30;;;;;;5059839;28;20182;-78
2022/12/29 17:19:44;;;;;;;2.83;1.07;;;8.70;26.60;;;;;;5063098;28;20207;-79
2022/12/29 17:22:17;;;;;;;2.60;1.03;;;8.70;26.30;;;;;;5063669;28;20577;-76
2022/12/29 17:24:43;;;;;;;1.63;0.83;;;8.70;27.80;;;;;;5064458;28;20438;-78
2022/12/29 17:27:20;;;;;;;2.00;1.20;;;8.60;27.20;;;;;;5065659;28;20264;-78
2022/12/29 17:29:46;;;;;;;2.50;1.13;;;8.60;28.20;;;;;;5063880;28;20217;-77
2022/12/29 17:32:13;;;;;;;2.40;1.10;;;8.60;34.10;;;;;;5064458;28;20296;-77
2022/12/29 17:34:40;;;;;;;2.43;1.17;;;8.60;32.70;;;;;;5059352;28;20225;-78
2022/12/29 17:37:30;;;;;;;1.33;0.93;;;8.60;33.30;;;;;;5062703;28;20674;-78
2022/12/29 17:39:56;;;;;;;6.37;2.97;;;8.60;26.20;;;;;;5058143;28;20684;-82
2022/12/29 17:42:22;;;;;;;6.50;3.40;;;8.70;18.60;;;;;;5061584;28;20268;-78
2022/12/29 17:44:48;;;;;;;4.07;1.47;;;8.80;8.10;;;;;;5064317;28;20282;-77
2022/12/29 17:47:15;;;;;;;3.40;1.10;;;8.70;6.10;;;;;;5062705;28;20234;-78
2022/12/29 17:49:47;;;;;;;3.77;1.53;;;8.80;2.00;;;;;;5061090;28;20606;-77
2022/12/29 17:52:14;;;;;;;4.33;1.20;;;8.80;1.00;;;;;;5065216;28;20274;-80
2022/12/29 17:54:51;;;;;;;3.73;1.40;;;8.80;1.00;;;;;;5061398;28;20182;-76
2022/12/29 17:57:19;;;;;;;6.00;1.47;;;8.80;1.00;;;;;;5058210;28;20655;-80
2022/12/29 17:59:44;;;;;;;3.70;1.30;;;8.70;1.00;;;;;;5067206;28;20209;-78
2022/12/29 18:02:25;;;;;;;2.60;1.20;;;8.70;1.00;;;;;;5067027;28;20204;-77
2022/12/29 18:04:52;;;;;;;1.87;0.90;;;8.70;1.00;;;;;;5067265;28;20196;-77
2022/12/29 18:07:17;;;;;;;1.77;1.03;;;8.60;1.00;;;;;;5065472;28;20197;-79
2022/12/29 18:09:43;;;;;;;4.20;1.27;;;8.70;1.00;;;;;;5066626;28;20205;-80
2022/12/29 18:12:32;;;;;;;2.73;0.90;;;8.80;1.00;;;;;;5067484;28;20232;-78
2022/12/29 18:14:58;;;;;;;3.13;0.90;;;9.00;1.00;;;;;;5064862;28;20197;-78
2022/12/29 18:17:24;;;;;;;2.80;1.00;;;9.10;1.00;;;;;;5064200;28;20494;-77
2022/12/29 18:19:53;;;;;;;3.77;1.10;;;9.10;1.00;;;;;;5065233;28;21279;-77
2022/12/29 18:22:19;;;;;;;5.07;1.53;;;9.00;1.00;;;;;;5065334;28;20192;-78
2022/12/29 18:24:45;;;;;;;3.73;1.17;;;9.10;1.00;;;;;;5063385;28;20216;-79
2022/12/29 18:27:14;;;;;;;2.77;0.90;;;9.10;1.00;;;;;;5065144;28;20216;-79
2022/12/29 18:29:40;;;;;;;4.90;1.10;;;9.00;1.00;;;;;;5065036;28;20201;-77
2022/12/29 18:32:11;;;;;;;2.47;1.33;;;9.00;1.00;;;;;;5064166;28;20219;-78
2022/12/29 18:34:36;;;;;;;2.50;0.80;;;9.10;1.00;;;;;;5066111;28;20188;-78
2022/12/29 18:37:02;;;;;;;2.50;1.10;;;9.00;1.00;;;;;;5063538;28;20182;-77
2022/12/29 18:39:28;;;;;;;2.17;0.90;;;9.10;1.00;;;;;;5064147;28;20213;-78
2022/12/29 18:41:53;;;;;;;3.07;1.03;;;9.10;1.00;;;;;;5063819;28;20186;-78
2022/12/29 18:44:20;;;;;;;3.20;0.83;;;9.10;1.00;;;;;;5065562;28;20181;-81
2022/12/29 18:46:46;;;;;;;2.80;0.83;;;9.00;1.00;;;;;;5064945;28;20588;-77
2022/12/29 18:49:11;;;;;;;3.23;1.20;;;9.10;1.00;;;;;;5064384;28;20216;-80
2022/12/29 18:51:37;;;;;;;1.60;0.60;;;9.10;1.00;;;;;;5061466;28;20557;-78
2022/12/29 18:54:02;;;;;;;4.13;0.93;;;9.20;1.00;;;;;;5065437;28;20185;-79
2022/12/29 18:56:28;;;;;;;2.77;1.00;;;9.20;1.00;;;;;;5064726;28;20178;-78
2022/12/29 18:58:55;;;;;;;1.93;0.83;;;9.30;1.00;;;;;;5062890;28;20213;-77
2022/12/29 19:01:26;;;;;;;3.90;0.90;;;9.40;1.00;;;;;;5064030;28;20190;-81
2022/12/29 19:03:53;;;;;;;3.57;0.97;;;9.40;1.00;;;;;;5057290;28;20189;-78
2022/12/29 19:06:20;;;;;;;2.50;0.70;;;9.40;1.00;;;;;;5061819;28;20277;-79
2022/12/29 19:08:45;;;;;;;2.03;0.90;;;9.40;1.00;;;;;;5058518;28;20205;-77
2022/12/29 19:11:11;;;;;;;2.63;0.83;;;9.40;1.00;;;;;;5060016;28;21023;-78
2022/12/29 19:13:36;;;;;;;2.27;0.90;;;9.50;1.00;;;;;;5063518;28;20200;-81
2022/12/29 19:16:02;;;;;;;1.57;0.70;;;9.40;1.00;;;;;;5059501;28;20185;-76
2022/12/29 19:18:28;;;;;;;3.20;0.93;;;9.40;1.00;;;;;;5063521;28;20243;-78
2022/12/29 19:20:58;;;;;;;2.73;0.90;;;9.50;1.00;;;;;;5064766;28;20177;-79
2022/12/29 19:23:25;;;;;;;3.17;0.70;;;9.50;1.00;;;;;;5064525;28;20670;-78
2022/12/29 19:25:53;;;;;;;3.50;1.00;;;9.40;1.00;;;;;;5063565;28;20681;-77
2022/12/29 19:28:25;;;;;;;2.60;0.90;;;9.40;1.00;;;;;;5063537;28;20296;-78
2022/12/29 19:30:52;;;;;;;4.20;1.00;;;9.40;1.00;;;;;;5064807;28;20504;-79
2022/12/29 19:33:20;;;;;;;2.40;0.80;;;9.50;1.00;;;;;;5062199;28;20227;-78
2022/12/29 19:35:45;;;;;;;2.90;0.90;;;9.50;1.00;;;;;;5062913;28;20205;-79
2022/12/29 19:38:12;;;;;;;3.97;1.10;;;9.50;1.00;;;;;;5064547;28;20232;-77
2022/12/29 19:40:42;;;;;;;3.57;1.00;;;9.50;1.00;;;;;;5064442;28;20185;-77
2022/12/29 19:43:12;;;;;;;3.87;0.90;;;9.40;1.00;;;;;;5062507;28;20593;-78
2022/12/29 19:45:43;;;;;;;4.23;0.90;;;9.40;1.00;;;;;;5062997;28;20240;-78
2022/12/29 19:48:13;;;;;;;1.67;0.77;;;9.40;1.00;;;;;;5060744;28;20239;-78
2022/12/29 19:50:39;;;;;;;2.33;0.87;;;9.30;1.00;;;;;;5062602;28;20661;-78
2022/12/29 19:53:04;;;;;;;2.13;1.10;;;9.30;1.00;;;;;;5062642;28;20213;-78
2022/12/29 19:55:30;;;;;;;2.73;0.90;;;9.20;1.00;;;;;;5060214;28;20280;-77
2022/12/29 19:57:56;;;;;;;2.13;0.87;;;9.20;1.00;;;;;;5064259;28;20238;-82
2022/12/29 20:00:23;;;;;;;2.30;0.90;;;9.10;1.00;;;;;;5064556;28;20272;-78
2022/12/29 20:02:49;;;;;;;1.87;0.87;;;9.10;1.00;;;;;;5064396;28;20683;-81
2022/12/29 20:05:15;;;;;;;2.97;0.90;;;9.30;1.00;;;;;;5064021;28;20224;-80
2022/12/29 20:07:40;;;;;;;2.97;0.97;;;9.00;1.00;;;;;;5064585;28;20185;-79
2022/12/29 20:10:07;;;;;;;1.80;0.80;;;8.90;1.00;;;;;;5063701;28;20221;-80
2022/12/29 20:12:34;;;;;;;2.53;1.10;;;8.90;1.00;;;;;;5063114;28;20201;-79
2022/12/29 20:14:59;;;;;;;3.47;1.03;;;8.90;1.00;;;;;;5063469;28;20235;-78
2022/12/29 20:17:25;;;;;;;3.07;1.00;;;8.70;1.00;;;;;;5062326;28;20181;-77
2022/12/29 20:19:51;;;;;;;3.17;0.80;;;8.60;1.00;;;;;;5065132;28;20690;-79
2022/12/29 20:22:17;;;;;;;1.30;0.77;;;8.50;1.00;;;;;;5064302;28;21091;-80
2022/12/29 20:24:42;;;;;;;5.73;1.20;;;8.60;1.00;;;;;;5064801;28;20208;-78
2022/12/29 20:27:11;;;;;;;3.67;0.80;;;8.50;1.00;;;;;;5063973;28;20562;-80
2022/12/29 20:29:41;;;;;;;3.37;0.83;;;8.40;1.00;;;;;;5059360;28;20265;-79
2022/12/29 20:32:13;;;;;;;1.40;0.70;;;8.40;1.00;;;;;;5064104;28;20201;-77
2022/12/29 20:34:40;;;;;;;2.93;0.83;;;8.30;1.00;;;;;;5053295;28;20189;-81
2022/12/29 20:37:05;;;;;;;5.53;0.93;;;8.30;1.00;;;;;;5061913;28;20255;-77
2022/12/29 20:39:31;;;;;;;3.67;1.10;;;8.20;1.00;;;;;;5059383;28;20234;-79
2022/12/29 20:41:58;;;;;;;2.53;1.00;;;8.20;1.00;;;;;;5064491;28;20189;-80
2022/12/29 20:44:25;;;;;;;3.20;1.07;;;8.20;1.00;;;;;;5065135;28;20182;-77
2022/12/29 20:46:50;;;;;;;4.53;1.50;;;8.20;1.00;;;;;;5064627;28;20265;-77
2022/12/29 20:49:16;;;;;;;3.20;1.40;;;8.20;1.00;;;;;;5067100;28;20284;-78
2022/12/29 20:51:43;;;;;;;2.77;1.40;;;8.20;1.00;;;;;;5067082;28;20683;-79
2022/12/29 20:54:10;;;;;;;5.33;2.07;;;8.30;1.00;;;;;;5065730;28;20185;-78
2022/12/29 20:56:36;;;;;;;5.47;1.50;;;8.40;1.00;;;;;;5064778;28;20258;-78
2022/12/29 20:59:02;;;;;;;4.90;1.40;;;8.40;1.00;;;;;;5067329;28;20284;-78
2022/12/29 21:01:28;;;;;;;5.30;1.80;;;8.50;1.00;;;;;;5065108;28;20662;-79
2022/12/29 21:03:53;;;;;;;4.83;1.50;;;8.60;1.00;;;;;;5065657;28;20730;-78
2022/12/29 21:06:20;;;;;;;6.20;1.20;;;8.60;1.00;;;;;;5066628;28;20188;-78
2022/12/29 21:08:48;;;;;;;4.07;1.00;;;8.60;1.00;;;;;;5066871;28;20280;-80
2022/12/29 21:11:13;;;;;;;5.90;1.40;;;8.60;1.00;;;;;;5064948;28;21004;-77
2022/12/29 21:13:39;;;;;;;2.77;0.97;;;8.60;1.00;;;;;;5065099;28;20178;-79
2022/12/29 21:16:07;;;;;;;4.00;1.07;;;8.60;1.00;;;;;;5063947;28;20678;-77
2022/12/29 21:18:33;;;;;;;3.60;1.20;;;8.60;1.00;;;;;;5063534;28;20197;-78
2022/12/29 21:21:05;;;;;;;1.97;1.00;;;8.60;1.00;;;;;;5058208;28;20242;-78
2022/12/29 21:23:31;;;;;;;2.90;1.10;;;8.50;1.00;;;;;;5066112;28;20296;-78
2022/12/29 21:25:59;;;;;;;5.87;1.40;;;8.50;1.00;;;;;;5066449;28;20185;-78
2022/12/29 21:28:25;;;;;;;4.53;1.30;;;8.50;1.00;;;;;;5066247;28;20213;-79
2022/12/29 21:30:51;;;;;;;5.57;1.07;;;8.50;1.00;;;;;;5066597;28;20184;-80
2022/12/29 21:33:18;;;;;;;5.03;1.13;;;8.50;1.00;;;;;;5066203;28;20233;-77
2022/12/29 21:35:44;;;;;;;3.40;1.60;;;8.50;1.00;;;;;;5065052;28;20785;-78
2022/12/29 21:38:10;;;;;;;4.20;1.10;;;8.30;1.00;;;;;;5066726;28;20201;-77
2022/12/29 21:40:37;;;;;;;2.73;0.90;;;8.10;11.00;;;;;;5065672;28;20228;-77
2022/12/29 21:43:03;;;;;;;3.43;0.90;;;7.90;17.10;;;;;;5062113;28;20182;-78
2022/12/29 21:45:30;;;;;;;1.60;0.90;;;8.00;1.00;;;;;;5065679;28;20212;-79
2022/12/29 21:48:19;;;;;;;3.03;1.00;;;7.90;1.00;;;;;;5066765;28;20234;-76
2022/12/29 21:53:37;;;;;;;3.67;1.10;;;7.70;40.20;;;;;;5066988;28;20215;-78
2022/12/29 21:56:08;;;;;;;3.20;0.90;;;7.60;93.00;;;;;;5061832;28;20239;-77
2022/12/29 22:15:00;;;;;;;4.30;1.00;;;7.20;90.70;;;;;;5067415;28;20199;-79
2022/12/29 22:17:25;;;;;;;4.57;1.20;;;7.10;88.40;;;;;;5065042;28;20182;-81
2022/12/29 22:19:51;;;;;;;3.27;1.20;;;7.10;84.40;;;;;;5065186;28;20208;-77
2022/12/29 22:22:16;;;;;;;4.70;1.43;;;7.00;96.30;;;;;;5065792;28;20276;-79
2022/12/29 22:24:42;;;;;;;2.97;1.13;;;6.90;99.90;;;;;;5067332;28;20245;-78
2022/12/29 22:27:08;;;;;;;3.30;1.20;;;6.80;98.60;;;;;;5064932;28;20743;-77
2022/12/29 22:29:33;;;;;;;5.10;1.10;;;6.80;97.90;;;;;;5065908;28;20197;-78
2022/12/29 22:31:59;;;;;;;2.70;1.10;;;6.90;85.20;;;;;;5066717;28;20211;-79
2022/12/29 22:34:24;;;;;;;5.27;1.47;;;6.90;91.00;;;;;;5065205;28;20654;-77
2022/12/29 22:36:50;;;;;;;3.83;1.20;;;6.80;81.90;;;;;;5067370;28;20181;-76
2022/12/29 22:39:16;;;;;;;3.70;1.27;;;6.90;79.40;;;;;;5067771;28;20237;-77
2022/12/29 22:41:41;;;;;;;2.53;1.43;;;6.90;73.60;;;;;;5067434;28;20189;-78
2022/12/29 22:44:07;;;;;;;4.43;1.23;;;6.90;80.30;;;;;;5067572;28;20416;-80
2022/12/29 22:46:32;;;;;;;2.50;1.00;;;6.90;83.10;;;;;;5067417;28;20219;-77
2022/12/29 22:48:58;;;;;;;4.10;1.20;;;6.90;90.80;;;;;;5067944;28;21007;-80
2022/12/29 22:51:24;;;;;;;4.00;1.20;;;6.90;91.70;;;;;;5067367;28;20213;-77
2022/12/29 22:53:50;;;;;;;4.10;1.43;;;6.90;95.90;;;;;;5067434;28;20552;-79
2022/12/29 22:56:15;;;;;;;3.60;1.30;;;7.00;94.70;;;;;;5066505;28;20185;-78
2022/12/29 22:58:43;;;;;;;5.87;1.50;;;7.00;91.40;;;;;;5067805;28;20193;-79
2022/12/29 23:01:10;;;;;;;3.40;1.10;;;7.10;78.70;;;;;;5066980;28;20185;-78
2022/12/29 23:03:36;;;;;;;3.33;0.90;;;7.10;75.00;;;;;;5065726;28;20170;-79
2022/12/29 23:06:05;;;;;;;3.67;1.17;;;7.20;58.40;;;;;;5067103;28;20191;-78
2022/12/29 23:08:33;;;;;;;8.17;1.37;;;7.20;45.10;;;;;;5067407;28;20989;-79
2022/12/29 23:10:59;;;;;;;5.43;1.60;;;7.30;28.00;;;;;;5065326;28;20181;-78
2022/12/29 23:13:24;;;;;;;4.40;1.17;;;7.30;18.00;;;;;;5066739;28;20186;-77
2022/12/29 23:15:50;;;;;;;3.80;1.37;;;7.20;22.80;;;;;;5064534;28;20182;-79
2022/12/29 23:18:16;;;;;;;4.57;1.40;;;7.20;27.30;;;;;;5065743;28;20208;-79
2022/12/29 23:20:42;;;;;;;2.57;1.20;;;7.20;24.60;;;;;;5066715;28;20174;-78
2022/12/29 23:23:08;;;;;;;7.60;1.70;;;7.20;24.90;;;;;;5065126;28;20209;-80
2022/12/29 23:25:37;;;;;;;4.23;1.60;;;7.10;22.20;;;;;;5065300;28;20566;-77
2022/12/29 23:28:06;;;;;;;4.73;1.27;;;7.10;25.00;;;;;;5066498;28;20209;-78
2022/12/29 23:30:31;;;;;;;2.67;1.00;;;7.10;18.30;;;;;;5064590;28;20196;-80
2022/12/29 23:32:57;;;;;;;4.33;1.47;;;7.10;23.20;;;;;;5065058;28;20213;-79
2022/12/29 23:35:22;;;;;;;5.87;1.50;;;7.10;14.00;;;;;;5066910;28;20268;-80
2022/12/29 23:37:48;;;;;;;6.17;1.60;;;7.10;9.80;;;;;;5066140;28;20173;-78
2022/12/29 23:40:13;;;;;;;7.40;2.10;;;7.10;8.30;;;;;;5065750;28;20178;-78
2022/12/29 23:42:39;;;;;;;6.57;1.60;;;7.10;6.80;;;;;;5065771;28;20192;-79
2022/12/29 23:45:05;;;;;;;9.07;1.87;;;7.10;1.70;;;;;;5065968;28;20207;-77
2022/12/29 23:47:31;;;;;;;8.63;1.80;;;7.10;1.00;;;;;;5066223;28;20185;-79
2022/12/29 23:49:56;;;;;;;5.23;1.70;;;7.10;1.00;;;;;;5065396;28;20231;-78
2022/12/29 23:52:22;;;;;;;7.20;1.70;;;7.10;1.00;;;;;;5066280;28;20579;-78
2022/12/29 23:54:48;;;;;;;7.33;1.67;;;7.10;1.00;;;;;;5064747;28;20178;-78
2022/12/29 23:57:14;;;;;;;7.93;1.80;;;7.10;1.00;;;;;;5065836;28;20721;-79
2022/12/29 23:59:40;;;;;;;8.13;2.00;;;7.10;1.00;;;;;;5065001;28;20194;-77
